sensor_id;sensor_type;location;lat;lon;timestamp;P1;durP1;ratioP1;P2;durP2;ratioP2
40757;SDS011;26462;47.384;19.218;2023-07-31T01:44:08;3.13;;;2.10;;
40757;SDS011;26462;47.384;19.218;2023-07-31T01:46:35;2.08;;;1.50;;
40757;SDS011;26462;47.384;19.218;2023-07-31T01:49:03;2.28;;;1.80;;
40757;SDS011;26462;47.384;19.218;2023-07-31T01:51:32;2.80;;;1.63;;
40757;SDS011;26462;47.384;19.218;2023-07-31T01:54:02;3.75;;;1.90;;
40757;SDS011;26462;47.384;19.218;2023-07-31T01:56:39;3.33;;;2.05;;
40757;SDS011;26462;47.384;19.218;2023-07-31T02:51:14;3.97;;;1.55;;
40757;SDS011;26462;47.384;19.218;2023-07-31T02:53:43;3.47;;;1.52;;
40757;SDS011;26462;47.384;19.218;2023-07-31T03:19:08;2.75;;;1.40;;
40757;SDS011;26462;47.384;19.218;2023-07-31T03:21:35;3.72;;;1.40;;
40757;SDS011;26462;47.384;19.218;2023-07-31T03:24:11;2.45;;;1.50;;
40757;SDS011;26462;47.384;19.218;2023-07-31T03:26:43;5.80;;;1.35;;
40757;SDS011;26462;47.384;19.218;2023-07-31T03:29:11;2.17;;;1.25;;
40757;SDS011;26462;47.384;19.218;2023-07-31T03:31:39;4.40;;;1.30;;
40757;SDS011;26462;47.384;19.218;2023-07-31T03:36:55;3.15;;;1.27;;
40757;SDS011;26462;47.384;19.218;2023-07-31T03:42:43;3.67;;;1.17;;
40757;SDS011;26462;47.384;19.218;2023-07-31T03:55:45;3.70;;;1.00;;
40757;SDS011;26462;47.384;19.218;2023-07-31T03:58:22;3.70;;;1.10;;
40757;SDS011;26462;47.384;19.218;2023-07-31T04:00:51;2.03;;;1.23;;
40757;SDS011;26462;47.384;19.218;2023-07-31T04:03:19;1.75;;;0.82;;
40757;SDS011;26462;47.384;19.218;2023-07-31T04:05:47;2.38;;;1.00;;
40757;SDS011;26462;47.384;19.218;2023-07-31T04:11:13;2.30;;;1.10;;
40757;SDS011;26462;47.384;19.218;2023-07-31T04:13:44;2.55;;;1.33;;
40757;SDS011;26462;47.384;19.218;2023-07-31T04:16:11;4.13;;;1.38;;
40757;SDS011;26462;47.384;19.218;2023-07-31T04:18:46;3.28;;;1.17;;
40757;SDS011;26462;47.384;19.218;2023-07-31T04:21:20;2.03;;;0.93;;
40757;SDS011;26462;47.384;19.218;2023-07-31T04:23:54;4.10;;;0.90;;
40757;SDS011;26462;47.384;19.218;2023-07-31T04:26:23;1.35;;;0.60;;
40757;SDS011;26462;47.384;19.218;2023-07-31T04:28:53;2.88;;;1.15;;
40757;SDS011;26462;47.384;19.218;2023-07-31T04:31:22;1.52;;;0.85;;
40757;SDS011;26462;47.384;19.218;2023-07-31T04:33:56;6.05;;;1.05;;
40757;SDS011;26462;47.384;19.218;2023-07-31T04:36:23;3.00;;;1.10;;
40757;SDS011;26462;47.384;19.218;2023-07-31T04:38:54;1.15;;;0.90;;
40757;SDS011;26462;47.384;19.218;2023-07-31T04:41:22;1.55;;;0.80;;
40757;SDS011;26462;47.384;19.218;2023-07-31T04:47:35;1.77;;;0.60;;
40757;SDS011;26462;47.384;19.218;2023-07-31T04:56:16;2.70;;;0.77;;
40757;SDS011;26462;47.384;19.218;2023-07-31T05:12:16;1.95;;;0.55;;
40757;SDS011;26462;47.384;19.218;2023-07-31T05:15:13;2.53;;;0.90;;
40757;SDS011;26462;47.384;19.218;2023-07-31T05:17:42;2.25;;;0.80;;
40757;SDS011;26462;47.384;19.218;2023-07-31T05:20:10;5.35;;;0.93;;
40757;SDS011;26462;47.384;19.218;2023-07-31T05:22:44;1.13;;;0.52;;
40757;SDS011;26462;47.384;19.218;2023-07-31T05:25:15;1.80;;;0.70;;
40757;SDS011;26462;47.384;19.218;2023-07-31T05:27:43;1.83;;;0.63;;
40757;SDS011;26462;47.384;19.218;2023-07-31T05:30:14;1.00;;;0.47;;
40757;SDS011;26462;47.384;19.218;2023-07-31T05:36:16;2.05;;;0.40;;
40757;SDS011;26462;47.384;19.218;2023-07-31T05:38:50;1.30;;;0.50;;
40757;SDS011;26462;47.384;19.218;2023-07-31T05:41:21;4.40;;;1.15;;
40757;SDS011;26462;47.384;19.218;2023-07-31T05:43:59;1.48;;;0.32;;
40757;SDS011;26462;47.384;19.218;2023-07-31T05:46:29;1.08;;;0.50;;
40757;SDS011;26462;47.384;19.218;2023-07-31T05:58:50;1.10;;;0.55;;
40757;SDS011;26462;47.384;19.218;2023-07-31T06:31:34;1.27;;;0.40;;
40757;SDS011;26462;47.384;19.218;2023-07-31T06:34:03;1.48;;;0.50;;
40757;SDS011;26462;47.384;19.218;2023-07-31T06:36:32;1.30;;;0.40;;
40757;SDS011;26462;47.384;19.218;2023-07-31T06:38:59;0.95;;;0.25;;
40757;SDS011;26462;47.384;19.218;2023-07-31T06:41:27;1.02;;;0.32;;
40757;SDS011;26462;47.384;19.218;2023-07-31T06:43:58;1.77;;;0.63;;
40757;SDS011;26462;47.384;19.218;2023-07-31T06:46:26;1.10;;;0.30;;
40757;SDS011;26462;47.384;19.218;2023-07-31T06:48:57;2.08;;;0.40;;
40757;SDS011;26462;47.384;19.218;2023-07-31T06:51:27;3.22;;;0.73;;
40757;SDS011;26462;47.384;19.218;2023-07-31T06:53:54;1.60;;;0.55;;
40757;SDS011;26462;47.384;19.218;2023-07-31T06:56:27;2.47;;;0.47;;
40757;SDS011;26462;47.384;19.218;2023-07-31T07:02:31;2.00;;;0.30;;
40757;SDS011;26462;47.384;19.218;2023-07-31T07:04:59;1.85;;;0.30;;
40757;SDS011;26462;47.384;19.218;2023-07-31T07:07:28;1.67;;;0.20;;
40757;SDS011;26462;47.384;19.218;2023-07-31T07:12:52;2.25;;;0.35;;
40757;SDS011;26462;47.384;19.218;2023-07-31T07:15:49;1.48;;;0.22;;
40757;SDS011;26462;47.384;19.218;2023-07-31T07:18:27;1.20;;;0.30;;
40757;SDS011;26462;47.384;19.218;2023-07-31T07:20:56;2.20;;;0.32;;
40757;SDS011;26462;47.384;19.218;2023-07-31T07:23:26;1.50;;;0.20;;
40757;SDS011;26462;47.384;19.218;2023-07-31T07:25:59;0.82;;;0.20;;
40757;SDS011;26462;47.384;19.218;2023-07-31T07:28:26;1.13;;;0.73;;
40757;SDS011;26462;47.384;19.218;2023-07-31T07:30:55;2.80;;;0.85;;
40757;SDS011;26462;47.384;19.218;2023-07-31T07:33:27;2.30;;;0.40;;
40757;SDS011;26462;47.384;19.218;2023-07-31T07:36:02;0.80;;;0.30;;
40757;SDS011;26462;47.384;19.218;2023-07-31T07:38:30;1.35;;;0.40;;
40757;SDS011;26462;47.384;19.218;2023-07-31T07:40:58;1.30;;;0.68;;
40757;SDS011;26462;47.384;19.218;2023-07-31T07:43:35;1.35;;;0.20;;
40757;SDS011;26462;47.384;19.218;2023-07-31T07:46:04;2.10;;;0.40;;
40757;SDS011;26462;47.384;19.218;2023-07-31T07:48:35;1.20;;;0.25;;
40757;SDS011;26462;47.384;19.218;2023-07-31T07:51:02;2.20;;;0.40;;
40757;SDS011;26462;47.384;19.218;2023-07-31T07:53:34;3.28;;;0.52;;
40757;SDS011;26462;47.384;19.218;2023-07-31T07:56:08;6.55;;;0.73;;
40757;SDS011;26462;47.384;19.218;2023-07-31T07:58:45;2.00;;;0.50;;
40757;SDS011;26462;47.384;19.218;2023-07-31T08:01:42;1.70;;;0.43;;
40757;SDS011;26462;47.384;19.218;2023-07-31T08:04:09;0.88;;;0.30;;
40757;SDS011;26462;47.384;19.218;2023-07-31T08:06:36;2.28;;;0.63;;
40757;SDS011;26462;47.384;19.218;2023-07-31T08:09:04;2.42;;;0.50;;
40757;SDS011;26462;47.384;19.218;2023-07-31T08:14:04;3.13;;;0.50;;
40757;SDS011;26462;47.384;19.218;2023-07-31T08:16:35;2.83;;;0.50;;
40757;SDS011;26462;47.384;19.218;2023-07-31T08:19:03;2.88;;;0.40;;
40757;SDS011;26462;47.384;19.218;2023-07-31T08:21:31;3.20;;;0.40;;
40757;SDS011;26462;47.384;19.218;2023-07-31T08:24:00;2.25;;;0.30;;
40757;SDS011;26462;47.384;19.218;2023-07-31T08:26:33;1.75;;;0.30;;
40757;SDS011;26462;47.384;19.218;2023-07-31T08:29:05;0.73;;;0.28;;
40757;SDS011;26462;47.384;19.218;2023-07-31T08:31:34;1.42;;;0.28;;
40757;SDS011;26462;47.384;19.218;2023-07-31T08:34:01;1.15;;;0.40;;
40757;SDS011;26462;47.384;19.218;2023-07-31T08:36:30;2.22;;;0.30;;
40757;SDS011;26462;47.384;19.218;2023-07-31T08:38:57;1.02;;;0.35;;
40757;SDS011;26462;47.384;19.218;2023-07-31T08:41:27;2.42;;;0.47;;
40757;SDS011;26462;47.384;19.218;2023-07-31T08:44:09;1.45;;;0.43;;
40757;SDS011;26462;47.384;19.218;2023-07-31T08:46:39;2.05;;;0.30;;
40757;SDS011;26462;47.384;19.218;2023-07-31T08:49:08;1.40;;;0.43;;
40757;SDS011;26462;47.384;19.218;2023-07-31T08:51:46;2.88;;;0.40;;
40757;SDS011;26462;47.384;19.218;2023-07-31T08:54:32;0.70;;;0.30;;
40757;SDS011;26462;47.384;19.218;2023-07-31T08:56:59;1.38;;;0.40;;
40757;SDS011;26462;47.384;19.218;2023-07-31T08:59:45;2.03;;;0.40;;
40757;SDS011;26462;47.384;19.218;2023-07-31T09:02:13;3.22;;;0.30;;
40757;SDS011;26462;47.384;19.218;2023-07-31T09:04:43;4.07;;;0.43;;
40757;SDS011;26462;47.384;19.218;2023-07-31T09:07:13;3.17;;;0.30;;
40757;SDS011;26462;47.384;19.218;2023-07-31T09:12:15;2.25;;;0.50;;
40757;SDS011;26462;47.384;19.218;2023-07-31T09:14:45;1.77;;;0.32;;
40757;SDS011;26462;47.384;19.218;2023-07-31T09:17:12;2.17;;;0.70;;
40757;SDS011;26462;47.384;19.218;2023-07-31T09:19:47;2.88;;;0.65;;
40757;SDS011;26462;47.384;19.218;2023-07-31T09:22:14;3.83;;;0.45;;
40757;SDS011;26462;47.384;19.218;2023-07-31T09:24:41;1.88;;;0.40;;
40757;SDS011;26462;47.384;19.218;2023-07-31T09:27:08;3.55;;;0.30;;
40757;SDS011;26462;47.384;19.218;2023-07-31T09:29:38;4.45;;;0.95;;
40757;SDS011;26462;47.384;19.218;2023-07-31T09:32:15;1.05;;;0.38;;
40757;SDS011;26462;47.384;19.218;2023-07-31T09:34:46;4.68;;;0.40;;
40757;SDS011;26462;47.384;19.218;2023-07-31T09:37:13;4.60;;;0.75;;
40757;SDS011;26462;47.384;19.218;2023-07-31T09:39:49;3.35;;;0.60;;
40757;SDS011;26462;47.384;19.218;2023-07-31T09:42:26;2.08;;;0.40;;
40757;SDS011;26462;47.384;19.218;2023-07-31T09:44:54;2.15;;;0.30;;
40757;SDS011;26462;47.384;19.218;2023-07-31T09:47:39;4.85;;;0.47;;
40757;SDS011;26462;47.384;19.218;2023-07-31T09:50:16;2.60;;;0.50;;
40757;SDS011;26462;47.384;19.218;2023-07-31T09:52:43;1.95;;;0.60;;
40757;SDS011;26462;47.384;19.218;2023-07-31T09:55:17;3.72;;;0.40;;
40757;SDS011;26462;47.384;19.218;2023-07-31T09:58:03;2.05;;;0.30;;
40757;SDS011;26462;47.384;19.218;2023-07-31T10:00:38;2.72;;;0.30;;
40757;SDS011;26462;47.384;19.218;2023-07-31T10:03:06;4.10;;;0.50;;
40757;SDS011;26462;47.384;19.218;2023-07-31T10:05:42;2.63;;;0.40;;
40757;SDS011;26462;47.384;19.218;2023-07-31T10:10:48;1.42;;;0.38;;
40757;SDS011;26462;47.384;19.218;2023-07-31T10:13:19;2.90;;;0.50;;
40757;SDS011;26462;47.384;19.218;2023-07-31T10:15:49;3.53;;;0.65;;
40757;SDS011;26462;47.384;19.218;2023-07-31T10:18:21;1.60;;;0.75;;
40757;SDS011;26462;47.384;19.218;2023-07-31T10:20:49;3.00;;;0.40;;
40757;SDS011;26462;47.384;19.218;2023-07-31T10:23:16;0.80;;;0.30;;
40757;SDS011;26462;47.384;19.218;2023-07-31T10:25:47;6.15;;;0.70;;
40757;SDS011;26462;47.384;19.218;2023-07-31T10:28:17;1.88;;;0.30;;
40757;SDS011;26462;47.384;19.218;2023-07-31T10:30:44;3.42;;;0.50;;
40757;SDS011;26462;47.384;19.218;2023-07-31T10:33:13;2.35;;;0.60;;
40757;SDS011;26462;47.384;19.218;2023-07-31T10:35:44;4.18;;;0.40;;
40757;SDS011;26462;47.384;19.218;2023-07-31T10:38:19;3.95;;;0.80;;
40757;SDS011;26462;47.384;19.218;2023-07-31T10:40:46;1.35;;;0.40;;
40757;SDS011;26462;47.384;19.218;2023-07-31T10:43:25;0.80;;;0.30;;
40757;SDS011;26462;47.384;19.218;2023-07-31T10:45:54;2.80;;;0.45;;
40757;SDS011;26462;47.384;19.218;2023-07-31T10:48:21;3.15;;;0.73;;
40757;SDS011;26462;47.384;19.218;2023-07-31T10:50:51;3.08;;;0.57;;
40757;SDS011;26462;47.384;19.218;2023-07-31T10:53:23;1.98;;;0.40;;
40757;SDS011;26462;47.384;19.218;2023-07-31T10:55:58;2.55;;;0.52;;
40757;SDS011;26462;47.384;19.218;2023-07-31T10:58:31;2.38;;;0.55;;
40757;SDS011;26462;47.384;19.218;2023-07-31T11:04:30;1.30;;;0.40;;
40757;SDS011;26462;47.384;19.218;2023-07-31T11:07:00;1.35;;;0.30;;
40757;SDS011;26462;47.384;19.218;2023-07-31T11:09:30;3.05;;;0.40;;
40757;SDS011;26462;47.384;19.218;2023-07-31T11:12:02;1.65;;;0.50;;
40757;SDS011;26462;47.384;19.218;2023-07-31T11:14:31;1.60;;;0.40;;
40757;SDS011;26462;47.384;19.218;2023-07-31T11:16:58;1.63;;;0.30;;
40757;SDS011;26462;47.384;19.218;2023-07-31T11:19:25;1.88;;;0.30;;
40757;SDS011;26462;47.384;19.218;2023-07-31T11:21:53;1.48;;;0.40;;
40757;SDS011;26462;47.384;19.218;2023-07-31T11:24:20;2.85;;;0.43;;
40757;SDS011;26462;47.384;19.218;2023-07-31T11:26:55;4.32;;;0.40;;
40757;SDS011;26462;47.384;19.218;2023-07-31T11:29:22;2.63;;;0.40;;
40757;SDS011;26462;47.384;19.218;2023-07-31T11:31:56;0.80;;;0.30;;
40757;SDS011;26462;47.384;19.218;2023-07-31T11:34:23;2.38;;;0.50;;
40757;SDS011;26462;47.384;19.218;2023-07-31T11:36:53;2.67;;;0.70;;
40757;SDS011;26462;47.384;19.218;2023-07-31T11:39:24;2.13;;;0.30;;
40757;SDS011;26462;47.384;19.218;2023-07-31T11:41:52;1.55;;;0.55;;
40757;SDS011;26462;47.384;19.218;2023-07-31T11:44:25;4.03;;;0.40;;
40757;SDS011;26462;47.384;19.218;2023-07-31T11:46:56;1.92;;;0.35;;
40757;SDS011;26462;47.384;19.218;2023-07-31T11:49:23;1.98;;;0.22;;
40757;SDS011;26462;47.384;19.218;2023-07-31T11:51:50;2.70;;;0.55;;
40757;SDS011;26462;47.384;19.218;2023-07-31T11:54:18;1.73;;;0.30;;
40757;SDS011;26462;47.384;19.218;2023-07-31T11:56:45;1.98;;;0.28;;
40757;SDS011;26462;47.384;19.218;2023-07-31T11:59:12;6.38;;;1.15;;
40757;SDS011;26462;47.384;19.218;2023-07-31T12:01:40;1.00;;;0.28;;
40757;SDS011;26462;47.384;19.218;2023-07-31T12:04:07;2.22;;;0.40;;
40757;SDS011;26462;47.384;19.218;2023-07-31T12:06:35;2.50;;;0.22;;
40757;SDS011;26462;47.384;19.218;2023-07-31T12:09:04;1.55;;;0.40;;
40757;SDS011;26462;47.384;19.218;2023-07-31T12:11:54;0.80;;;0.30;;
40757;SDS011;26462;47.384;19.218;2023-07-31T12:14:20;1.88;;;0.30;;
40757;SDS011;26462;47.384;19.218;2023-07-31T12:16:54;1.33;;;0.32;;
40757;SDS011;26462;47.384;19.218;2023-07-31T12:19:26;1.77;;;0.32;;
40757;SDS011;26462;47.384;19.218;2023-07-31T12:21:58;0.75;;;0.30;;
40757;SDS011;26462;47.384;19.218;2023-07-31T12:24:26;2.35;;;0.30;;
40757;SDS011;26462;47.384;19.218;2023-07-31T12:26:54;3.55;;;0.45;;
40757;SDS011;26462;47.384;19.218;2023-07-31T12:29:21;2.00;;;0.30;;
40757;SDS011;26462;47.384;19.218;2023-07-31T12:31:49;2.95;;;0.35;;
40757;SDS011;26462;47.384;19.218;2023-07-31T12:34:16;2.65;;;0.70;;
40757;SDS011;26462;47.384;19.218;2023-07-31T12:36:45;1.13;;;0.40;;
40757;SDS011;26462;47.384;19.218;2023-07-31T12:39:12;0.82;;;0.17;;
40757;SDS011;26462;47.384;19.218;2023-07-31T12:41:41;3.90;;;0.60;;
40757;SDS011;26462;47.384;19.218;2023-07-31T12:44:08;3.03;;;0.40;;
40757;SDS011;26462;47.384;19.218;2023-07-31T12:46:36;2.70;;;0.50;;
40757;SDS011;26462;47.384;19.218;2023-07-31T12:49:06;1.45;;;0.30;;
40757;SDS011;26462;47.384;19.218;2023-07-31T12:51:33;3.22;;;0.50;;
40757;SDS011;26462;47.384;19.218;2023-07-31T12:54:02;1.73;;;0.30;;
40757;SDS011;26462;47.384;19.218;2023-07-31T12:56:29;3.88;;;0.40;;
40757;SDS011;26462;47.384;19.218;2023-07-31T12:58:56;1.67;;;0.30;;
40757;SDS011;26462;47.384;19.218;2023-07-31T13:01:23;1.58;;;0.30;;
40757;SDS011;26462;47.384;19.218;2023-07-31T13:03:50;2.58;;;0.35;;
40757;SDS011;26462;47.384;19.218;2023-07-31T13:06:19;2.45;;;0.57;;
40757;SDS011;26462;47.384;19.218;2023-07-31T13:08:47;3.42;;;0.57;;
40757;SDS011;26462;47.384;19.218;2023-07-31T13:11:14;2.63;;;0.43;;
40757;SDS011;26462;47.384;19.218;2023-07-31T13:13:41;2.03;;;0.32;;
40757;SDS011;26462;47.384;19.218;2023-07-31T13:16:08;2.63;;;0.40;;
40757;SDS011;26462;47.384;19.218;2023-07-31T13:18:35;2.65;;;0.75;;
40757;SDS011;26462;47.384;19.218;2023-07-31T13:21:02;1.40;;;0.30;;
40757;SDS011;26462;47.384;19.218;2023-07-31T13:23:29;3.25;;;0.50;;
40757;SDS011;26462;47.384;19.218;2023-07-31T13:25:56;3.15;;;0.40;;
40757;SDS011;26462;47.384;19.218;2023-07-31T13:28:23;2.28;;;0.30;;
40757;SDS011;26462;47.384;19.218;2023-07-31T13:30:53;1.55;;;0.28;;
40757;SDS011;26462;47.384;19.218;2023-07-31T13:33:20;2.40;;;0.35;;
40757;SDS011;26462;47.384;19.218;2023-07-31T13:36:03;3.58;;;0.30;;
40757;SDS011;26462;47.384;19.218;2023-07-31T13:38:30;2.13;;;0.43;;
40757;SDS011;26462;47.384;19.218;2023-07-31T13:40:57;3.72;;;0.32;;
40757;SDS011;26462;47.384;19.218;2023-07-31T13:43:25;1.58;;;0.30;;
40757;SDS011;26462;47.384;19.218;2023-07-31T13:45:52;1.17;;;0.40;;
40757;SDS011;26462;47.384;19.218;2023-07-31T13:48:19;2.80;;;0.40;;
40757;SDS011;26462;47.384;19.218;2023-07-31T13:50:46;3.13;;;0.50;;
40757;SDS011;26462;47.384;19.218;2023-07-31T13:53:13;1.05;;;0.22;;
40757;SDS011;26462;47.384;19.218;2023-07-31T13:55:40;2.40;;;0.30;;
40757;SDS011;26462;47.384;19.218;2023-07-31T13:58:11;2.28;;;0.52;;
40757;SDS011;26462;47.384;19.218;2023-07-31T14:00:39;1.85;;;0.30;;
40757;SDS011;26462;47.384;19.218;2023-07-31T14:03:06;0.80;;;0.30;;
40757;SDS011;26462;47.384;19.218;2023-07-31T14:05:33;3.03;;;0.43;;
40757;SDS011;26462;47.384;19.218;2023-07-31T14:08:00;3.53;;;0.40;;
40757;SDS011;26462;47.384;19.218;2023-07-31T14:10:28;0.82;;;0.30;;
40757;SDS011;26462;47.384;19.218;2023-07-31T14:12:55;4.65;;;0.30;;
40757;SDS011;26462;47.384;19.218;2023-07-31T14:15:22;3.92;;;0.52;;
40757;SDS011;26462;47.384;19.218;2023-07-31T14:17:49;2.90;;;0.47;;
40757;SDS011;26462;47.384;19.218;2023-07-31T14:20:16;1.88;;;0.60;;
40757;SDS011;26462;47.384;19.218;2023-07-31T14:22:44;2.22;;;0.40;;
40757;SDS011;26462;47.384;19.218;2023-07-31T14:25:11;2.33;;;0.30;;
40757;SDS011;26462;47.384;19.218;2023-07-31T14:27:38;2.90;;;0.20;;
40757;SDS011;26462;47.384;19.218;2023-07-31T14:30:08;2.17;;;0.55;;
40757;SDS011;26462;47.384;19.218;2023-07-31T14:32:35;1.23;;;0.20;;
40757;SDS011;26462;47.384;19.218;2023-07-31T14:35:03;1.00;;;0.15;;
40757;SDS011;26462;47.384;19.218;2023-07-31T14:37:41;1.92;;;0.30;;
40757;SDS011;26462;47.384;19.218;2023-07-31T14:40:12;1.25;;;0.40;;
40757;SDS011;26462;47.384;19.218;2023-07-31T14:42:40;1.13;;;0.30;;
40757;SDS011;26462;47.384;19.218;2023-07-31T14:45:07;1.52;;;0.20;;
40757;SDS011;26462;47.384;19.218;2023-07-31T14:47:35;2.70;;;0.30;;
40757;SDS011;26462;47.384;19.218;2023-07-31T14:50:03;2.35;;;0.40;;
40757;SDS011;26462;47.384;19.218;2023-07-31T14:52:30;1.88;;;0.38;;
40757;SDS011;26462;47.384;19.218;2023-07-31T14:54:57;1.67;;;0.35;;
40757;SDS011;26462;47.384;19.218;2023-07-31T14:57:25;1.10;;;0.20;;
40757;SDS011;26462;47.384;19.218;2023-07-31T14:59:53;1.48;;;0.40;;
40757;SDS011;26462;47.384;19.218;2023-07-31T15:02:21;1.83;;;0.30;;
40757;SDS011;26462;47.384;19.218;2023-07-31T15:04:48;1.20;;;0.40;;
40757;SDS011;26462;47.384;19.218;2023-07-31T15:07:15;1.23;;;0.30;;
40757;SDS011;26462;47.384;19.218;2023-07-31T15:09:42;2.40;;;0.40;;
40757;SDS011;26462;47.384;19.218;2023-07-31T15:12:09;1.63;;;0.30;;
40757;SDS011;26462;47.384;19.218;2023-07-31T15:14:37;1.00;;;0.30;;
40757;SDS011;26462;47.384;19.218;2023-07-31T15:17:04;2.35;;;0.45;;
40757;SDS011;26462;47.384;19.218;2023-07-31T15:19:31;2.05;;;0.20;;
40757;SDS011;26462;47.384;19.218;2023-07-31T15:22:01;1.83;;;0.47;;
40757;SDS011;26462;47.384;19.218;2023-07-31T15:24:29;3.75;;;0.40;;
40757;SDS011;26462;47.384;19.218;2023-07-31T15:26:56;2.38;;;0.63;;
40757;SDS011;26462;47.384;19.218;2023-07-31T15:29:24;1.33;;;0.30;;
40757;SDS011;26462;47.384;19.218;2023-07-31T15:31:52;3.30;;;0.30;;
40757;SDS011;26462;47.384;19.218;2023-07-31T15:34:19;2.33;;;0.65;;
40757;SDS011;26462;47.384;19.218;2023-07-31T15:36:47;1.90;;;0.32;;
40757;SDS011;26462;47.384;19.218;2023-07-31T15:39:14;0.90;;;0.30;;
40757;SDS011;26462;47.384;19.218;2023-07-31T15:41:41;1.65;;;0.30;;
40757;SDS011;26462;47.384;19.218;2023-07-31T15:44:08;0.65;;;0.20;;
40757;SDS011;26462;47.384;19.218;2023-07-31T15:46:36;3.08;;;0.50;;
40757;SDS011;26462;47.384;19.218;2023-07-31T15:49:03;1.33;;;0.25;;
40757;SDS011;26462;47.384;19.218;2023-07-31T15:51:30;2.97;;;0.50;;
40757;SDS011;26462;47.384;19.218;2023-07-31T15:53:57;2.50;;;0.30;;
40757;SDS011;26462;47.384;19.218;2023-07-31T15:56:24;2.90;;;0.43;;
40757;SDS011;26462;47.384;19.218;2023-07-31T15:58:51;3.30;;;0.30;;
40757;SDS011;26462;47.384;19.218;2023-07-31T16:01:19;2.83;;;0.38;;
40757;SDS011;26462;47.384;19.218;2023-07-31T16:03:46;1.98;;;0.25;;
40757;SDS011;26462;47.384;19.218;2023-07-31T16:06:14;1.48;;;0.40;;
40757;SDS011;26462;47.384;19.218;2023-07-31T16:08:41;1.83;;;0.40;;
40757;SDS011;26462;47.384;19.218;2023-07-31T16:11:08;2.17;;;0.40;;
40757;SDS011;26462;47.384;19.218;2023-07-31T16:13:36;1.85;;;0.35;;
40757;SDS011;26462;47.384;19.218;2023-07-31T16:16:03;2.33;;;0.40;;
40757;SDS011;26462;47.384;19.218;2023-07-31T16:18:32;2.15;;;0.32;;
40757;SDS011;26462;47.384;19.218;2023-07-31T16:21:00;1.92;;;0.40;;
40757;SDS011;26462;47.384;19.218;2023-07-31T16:23:27;2.15;;;0.30;;
40757;SDS011;26462;47.384;19.218;2023-07-31T16:25:54;2.67;;;0.30;;
40757;SDS011;26462;47.384;19.218;2023-07-31T16:28:21;1.35;;;0.30;;
40757;SDS011;26462;47.384;19.218;2023-07-31T16:30:48;1.83;;;0.35;;
40757;SDS011;26462;47.384;19.218;2023-07-31T16:33:16;2.38;;;0.40;;
40757;SDS011;26462;47.384;19.218;2023-07-31T16:35:44;3.00;;;0.40;;
40757;SDS011;26462;47.384;19.218;2023-07-31T16:38:11;1.65;;;0.22;;
40757;SDS011;26462;47.384;19.218;2023-07-31T16:40:38;4.60;;;0.65;;
40757;SDS011;26462;47.384;19.218;2023-07-31T16:43:05;2.25;;;0.40;;
40757;SDS011;26462;47.384;19.218;2023-07-31T16:45:33;2.28;;;0.50;;
40757;SDS011;26462;47.384;19.218;2023-07-31T16:48:01;2.40;;;0.20;;
40757;SDS011;26462;47.384;19.218;2023-07-31T16:50:31;2.28;;;0.25;;
40757;SDS011;26462;47.384;19.218;2023-07-31T16:52:58;4.78;;;0.40;;
40757;SDS011;26462;47.384;19.218;2023-07-31T16:55:25;2.13;;;0.35;;
40757;SDS011;26462;47.384;19.218;2023-07-31T16:57:55;1.48;;;0.40;;
40757;SDS011;26462;47.384;19.218;2023-07-31T17:00:22;1.70;;;0.30;;
40757;SDS011;26462;47.384;19.218;2023-07-31T17:02:50;2.05;;;0.20;;
40757;SDS011;26462;47.384;19.218;2023-07-31T17:05:17;1.77;;;0.20;;
40757;SDS011;26462;47.384;19.218;2023-07-31T17:07:44;2.00;;;0.20;;
40757;SDS011;26462;47.384;19.218;2023-07-31T17:10:11;1.60;;;0.30;;
40757;SDS011;26462;47.384;19.218;2023-07-31T17:12:38;1.80;;;0.32;;
40757;SDS011;26462;47.384;19.218;2023-07-31T17:15:06;1.23;;;0.28;;
40757;SDS011;26462;47.384;19.218;2023-07-31T17:17:36;3.42;;;0.43;;
40757;SDS011;26462;47.384;19.218;2023-07-31T17:20:03;1.80;;;0.30;;
40757;SDS011;26462;47.384;19.218;2023-07-31T17:22:31;4.40;;;0.57;;
40757;SDS011;26462;47.384;19.218;2023-07-31T17:25:14;2.08;;;0.40;;
40757;SDS011;26462;47.384;19.218;2023-07-31T17:27:45;1.63;;;0.47;;
40757;SDS011;26462;47.384;19.218;2023-07-31T17:30:33;1.10;;;0.40;;
40757;SDS011;26462;47.384;19.218;2023-07-31T17:33:01;1.75;;;0.90;;
40757;SDS011;26462;47.384;19.218;2023-07-31T17:35:28;3.28;;;0.30;;
40757;SDS011;26462;47.384;19.218;2023-07-31T17:37:56;2.95;;;0.38;;
40757;SDS011;26462;47.384;19.218;2023-07-31T17:40:24;2.17;;;0.30;;
40757;SDS011;26462;47.384;19.218;2023-07-31T17:42:52;1.80;;;0.30;;
40757;SDS011;26462;47.384;19.218;2023-07-31T17:45:19;1.50;;;0.40;;
40757;SDS011;26462;47.384;19.218;2023-07-31T17:47:47;2.05;;;0.35;;
40757;SDS011;26462;47.384;19.218;2023-07-31T17:50:15;3.78;;;1.13;;
40757;SDS011;26462;47.384;19.218;2023-07-31T17:52:43;3.85;;;0.60;;
40757;SDS011;26462;47.384;19.218;2023-07-31T17:55:10;2.50;;;0.60;;
40757;SDS011;26462;47.384;19.218;2023-07-31T17:57:38;2.90;;;0.50;;
40757;SDS011;26462;47.384;19.218;2023-07-31T18:00:06;3.92;;;0.38;;
40757;SDS011;26462;47.384;19.218;2023-07-31T18:02:33;3.35;;;0.52;;
40757;SDS011;26462;47.384;19.218;2023-07-31T18:05:03;1.00;;;0.30;;
40757;SDS011;26462;47.384;19.218;2023-07-31T18:07:31;2.40;;;0.40;;
40757;SDS011;26462;47.384;19.218;2023-07-31T18:09:59;6.72;;;0.55;;
40757;SDS011;26462;47.384;19.218;2023-07-31T18:12:29;1.75;;;0.40;;
40757;SDS011;26462;47.384;19.218;2023-07-31T18:14:57;3.38;;;0.43;;
40757;SDS011;26462;47.384;19.218;2023-07-31T18:17:25;2.25;;;0.38;;
40757;SDS011;26462;47.384;19.218;2023-07-31T18:19:53;2.45;;;0.63;;
40757;SDS011;26462;47.384;19.218;2023-07-31T18:22:21;3.08;;;0.60;;
40757;SDS011;26462;47.384;19.218;2023-07-31T18:24:49;2.65;;;0.32;;
40757;SDS011;26462;47.384;19.218;2023-07-31T18:27:16;5.72;;;0.95;;
40757;SDS011;26462;47.384;19.218;2023-07-31T18:29:45;3.40;;;0.73;;
40757;SDS011;26462;47.384;19.218;2023-07-31T18:32:13;2.63;;;0.40;;
40757;SDS011;26462;47.384;19.218;2023-07-31T18:34:40;0.63;;;0.20;;
40757;SDS011;26462;47.384;19.218;2023-07-31T18:37:08;3.30;;;0.50;;
40757;SDS011;26462;47.384;19.218;2023-07-31T18:39:35;2.88;;;0.50;;
40757;SDS011;26462;47.384;19.218;2023-07-31T18:42:03;0.90;;;0.38;;
40757;SDS011;26462;47.384;19.218;2023-07-31T18:44:31;3.45;;;0.50;;
40757;SDS011;26462;47.384;19.218;2023-07-31T18:46:58;3.03;;;0.63;;
40757;SDS011;26462;47.384;19.218;2023-07-31T18:49:26;1.48;;;0.43;;
40757;SDS011;26462;47.384;19.218;2023-07-31T18:51:53;2.35;;;0.20;;
40757;SDS011;26462;47.384;19.218;2023-07-31T18:54:24;1.25;;;0.30;;
40757;SDS011;26462;47.384;19.218;2023-07-31T18:56:52;2.45;;;0.43;;
40757;SDS011;26462;47.384;19.218;2023-07-31T18:59:19;5.28;;;0.32;;
40757;SDS011;26462;47.384;19.218;2023-07-31T19:01:47;2.70;;;0.40;;
40757;SDS011;26462;47.384;19.218;2023-07-31T19:04:16;1.33;;;0.30;;
40757;SDS011;26462;47.384;19.218;2023-07-31T19:06:44;3.42;;;0.80;;
40757;SDS011;26462;47.384;19.218;2023-07-31T19:09:32;4.10;;;0.80;;
40757;SDS011;26462;47.384;19.218;2023-07-31T19:12:00;5.70;;;0.77;;
40757;SDS011;26462;47.384;19.218;2023-07-31T19:14:27;2.20;;;0.57;;
40757;SDS011;26462;47.384;19.218;2023-07-31T19:16:55;3.22;;;0.38;;
40757;SDS011;26462;47.384;19.218;2023-07-31T19:19:23;3.45;;;0.30;;
40757;SDS011;26462;47.384;19.218;2023-07-31T19:21:51;5.30;;;0.50;;
40757;SDS011;26462;47.384;19.218;2023-07-31T19:24:18;3.55;;;0.60;;
40757;SDS011;26462;47.384;19.218;2023-07-31T19:26:47;6.38;;;1.88;;
40757;SDS011;26462;47.384;19.218;2023-07-31T19:29:17;3.25;;;0.93;;